createdAt,value
2022-09-11T00:00:44.122Z,9.93
2022-09-11T00:03:10.753Z,9.32
2022-09-11T00:05:39.442Z,9.60
2022-09-11T00:08:08.281Z,10.05
2022-09-11T00:10:37.671Z,9.75
2022-09-11T00:13:04.808Z,9.60
2022-09-11T00:15:36.745Z,10.73
2022-09-11T00:18:03.827Z,11.07
2022-09-11T00:20:30.868Z,10.45
2022-09-11T00:22:58.499Z,11.80
2022-09-11T00:25:25.254Z,10.98
2022-09-11T00:27:51.981Z,10.73
2022-09-11T00:30:18.530Z,10.77
2022-09-11T00:32:45.082Z,10.45
2022-09-11T00:35:12.807Z,10.82
2022-09-11T00:37:39.465Z,10.95
2022-09-11T00:40:06.660Z,10.80
2022-09-11T00:42:33.628Z,11.40
2022-09-11T00:45:04.324Z,11.65
2022-09-11T00:47:31.140Z,11.10
2022-09-11T00:50:04.104Z,10.90
2022-09-11T00:52:34.223Z,12.00
2022-09-11T00:55:10.907Z,11.43
2022-09-11T00:57:45.103Z,12.35
2022-09-11T01:00:13.301Z,12.02
2022-09-11T01:02:42.795Z,11.73
2022-09-11T01:05:10.392Z,11.80
2022-09-11T01:07:37.196Z,12.25
2022-09-11T01:10:05.894Z,12.07
2022-09-11T01:13:19.660Z,11.48
2022-09-11T01:16:03.712Z,12.88
2022-09-11T01:18:43.208Z,12.48
2022-09-11T01:21:46.976Z,12.73
2022-09-11T01:24:33.535Z,12.60
2022-09-11T01:27:38.243Z,12.38
2022-09-11T01:30:16.743Z,12.68
2022-09-11T01:33:08.986Z,13.18
2022-09-11T01:35:54.689Z,13.60
2022-09-11T01:38:54.395Z,12.70
2022-09-11T01:41:27.778Z,12.95
2022-09-11T01:44:14.955Z,13.13
2022-09-11T01:46:47.455Z,13.02
2022-09-11T01:49:30.309Z,13.05
2022-09-11T01:52:02.868Z,12.93
2022-09-11T01:54:33.295Z,12.75
2022-09-11T01:59:41.196Z,12.02
2022-09-11T02:02:11.010Z,12.85
2022-09-11T02:04:52.509Z,12.82
2022-09-11T02:07:23.439Z,13.27
2022-09-11T02:10:01.420Z,12.95
2022-09-11T02:12:39.625Z,13.40
2022-09-11T02:15:08.984Z,13.70
2022-09-11T02:17:42.988Z,13.48
2022-09-11T02:20:10.477Z,14.40
2022-09-11T02:22:37.451Z,14.52
2022-09-11T02:25:04.675Z,14.35
2022-09-11T02:27:31.863Z,13.82
2022-09-11T02:30:01.160Z,13.70
2022-09-11T02:32:32.369Z,14.73
2022-09-11T02:34:59.286Z,14.57
2022-09-11T02:37:59.138Z,15.23
2022-09-11T02:40:35.200Z,14.40
2022-09-11T02:43:32.184Z,15.02
2022-09-11T02:46:01.790Z,13.95
2022-09-11T02:48:45.741Z,14.10
2022-09-11T02:51:55.923Z,14.13
2022-09-11T02:54:40.095Z,13.70
2022-09-11T02:57:30.992Z,14.05
2022-09-11T03:02:30.594Z,14.52
2022-09-11T03:04:58.121Z,14.48
2022-09-11T03:07:25.239Z,15.02
2022-09-11T03:09:52.487Z,15.23
2022-09-11T03:12:21.927Z,15.65
2022-09-11T03:14:51.639Z,15.32
2022-09-11T03:17:18.344Z,15.75
2022-09-11T03:19:46.942Z,15.60
2022-09-11T03:22:14.668Z,15.77
2022-09-11T03:24:42.850Z,15.80
2022-09-11T03:27:10.279Z,14.98
2022-09-11T03:29:39.062Z,15.43
2022-09-11T03:32:05.840Z,16.48
2022-09-11T03:34:33.367Z,16.33
2022-09-11T03:37:00.193Z,15.70
2022-09-11T03:39:28.343Z,15.85
2022-09-11T03:41:58.299Z,16.52
2022-09-11T03:44:25.552Z,15.63
2022-09-11T03:46:52.961Z,16.08
2022-09-11T03:49:20.359Z,16.92
2022-09-11T03:51:47.842Z,16.42
2022-09-11T03:54:16.107Z,17.15
2022-09-11T03:56:43.013Z,16.02
2022-09-11T03:59:10.171Z,16.73
2022-09-11T04:01:38.094Z,15.77
2022-09-11T04:04:06.180Z,15.93
2022-09-11T04:06:38.039Z,15.75
2022-09-11T04:09:05.525Z,15.98
2022-09-11T04:11:36.773Z,15.75
2022-09-11T04:14:06.092Z,15.40
2022-09-11T04:16:33.449Z,16.50
2022-09-11T04:19:01.754Z,15.68
2022-09-11T04:21:29.030Z,16.40
2022-09-11T04:23:56.385Z,15.50
2022-09-11T04:26:25.783Z,15.88
2022-09-11T04:28:58.746Z,16.42
2022-09-11T04:31:27.507Z,16.75
2022-09-11T04:33:57.497Z,17.35
2022-09-11T04:36:27.279Z,18.20
2022-09-11T04:38:56.207Z,17.77
2022-09-11T04:41:23.184Z,18.10
2022-09-11T04:43:54.126Z,16.67
2022-09-11T04:46:21.085Z,18.33
2022-09-11T04:48:51.540Z,18.00
2022-09-11T04:51:30.587Z,17.90
2022-09-11T04:53:59.220Z,17.25
2022-09-11T04:56:34.189Z,17.88
2022-09-11T04:59:04.743Z,18.00
2022-09-11T05:01:34.059Z,17.50
2022-09-11T05:04:01.562Z,18.33
2022-09-11T05:06:32.024Z,18.05
2022-09-11T05:09:04.052Z,18.25
2022-09-11T05:11:33.477Z,18.42
2022-09-11T05:14:00.270Z,18.02
2022-09-11T05:16:30.494Z,17.60
2022-09-11T05:18:59.304Z,17.70
2022-09-11T05:21:27.002Z,17.88
2022-09-11T05:23:55.383Z,17.30
2022-09-11T05:26:24.686Z,18.20
2022-09-11T05:28:59.831Z,18.05
2022-09-11T05:31:27.048Z,17.55
2022-09-11T05:33:55.910Z,18.33
2022-09-11T05:36:23.475Z,18.60
2022-09-11T05:38:50.178Z,18.27
2022-09-11T05:41:17.415Z,17.90
2022-09-11T05:43:44.322Z,18.13
2022-09-11T05:46:15.063Z,17.48
2022-09-11T05:48:43.128Z,18.05
2022-09-11T05:51:21.356Z,17.02
2022-09-11T05:53:54.165Z,16.58
2022-09-11T05:56:22.806Z,15.95
2022-09-11T05:58:52.249Z,17.15
2022-09-11T06:01:22.687Z,15.85
2022-09-11T06:03:58.039Z,16.65
2022-09-11T06:06:26.033Z,16.75
2022-09-11T06:08:53.770Z,16.92
2022-09-11T06:11:21.770Z,17.00
2022-09-11T06:13:49.794Z,15.60
2022-09-11T06:16:23.474Z,15.57
2022-09-11T06:18:51.735Z,15.77
2022-09-11T06:21:27.160Z,15.50
2022-09-11T06:24:02.249Z,15.02
2022-09-11T06:26:29.545Z,14.85
2022-09-11T06:28:57.163Z,16.27
2022-09-11T06:31:26.785Z,15.65
2022-09-11T06:33:54.563Z,15.90
2022-09-11T06:36:24.019Z,16.15
2022-09-11T06:41:24.548Z,15.10
2022-09-11T06:43:54.041Z,14.65
2022-09-11T06:46:23.043Z,15.02
2022-09-11T06:48:50.810Z,16.02
2022-09-11T06:51:23.784Z,14.60
2022-09-11T06:53:58.063Z,15.17
2022-09-11T06:56:28.571Z,14.32
2022-09-11T06:58:56.601Z,14.52
2022-09-11T07:01:25.639Z,13.15
2022-09-11T07:04:02.517Z,13.70
2022-09-11T07:06:31.271Z,13.05
2022-09-11T07:09:02.397Z,12.38
2022-09-11T07:11:44.800Z,11.80
2022-09-11T07:14:11.633Z,11.40
2022-09-11T07:16:40.892Z,11.57
2022-09-11T07:19:10.832Z,10.98
2022-09-11T07:21:38.987Z,10.50
2022-09-11T07:24:07.076Z,11.05
2022-09-11T07:26:37.666Z,9.90
2022-09-11T07:29:11.192Z,11.35
2022-09-11T07:31:38.938Z,11.30
2022-09-11T07:34:06.291Z,11.75
2022-09-11T07:36:35.256Z,12.50
2022-09-11T07:39:05.102Z,11.45
2022-09-11T07:41:37.085Z,12.20
2022-09-11T07:44:10.191Z,11.52
2022-09-11T07:46:40.314Z,12.00
2022-09-11T07:49:09.947Z,12.40
2022-09-11T07:51:37.905Z,12.38
2022-09-11T07:54:06.459Z,12.38
2022-09-11T07:56:34.909Z,11.63
2022-09-11T07:59:07.261Z,11.45
2022-09-11T08:01:35.338Z,11.38
2022-09-11T08:04:05.871Z,10.88
2022-09-11T08:06:35.023Z,11.53
2022-09-11T08:09:07.601Z,10.38
2022-09-11T08:11:41.944Z,10.63
2022-09-11T08:14:11.638Z,10.23
2022-09-11T08:16:38.806Z,9.90
2022-09-11T08:19:06.711Z,9.88
2022-09-11T08:21:34.562Z,9.38
2022-09-11T08:24:01.366Z,8.82
2022-09-11T08:26:29.241Z,8.43
2022-09-11T08:28:59.794Z,8.27
2022-09-11T08:31:29.911Z,8.15
2022-09-11T08:33:58.664Z,7.43
2022-09-11T08:36:27.345Z,8.15
2022-09-11T08:38:55.045Z,7.65
2022-09-11T08:41:24.000Z,7.80
2022-09-11T08:43:53.758Z,7.75
2022-09-11T08:46:24.146Z,7.93
2022-09-11T08:51:31.363Z,6.50
2022-09-11T08:53:59.468Z,6.65
2022-09-11T08:56:29.683Z,5.90
2022-09-11T08:59:23.923Z,6.28
2022-09-11T09:02:19.562Z,5.85
2022-09-11T09:04:56.832Z,6.10
2022-09-11T09:07:28.756Z,6.07
2022-09-11T09:10:14.378Z,6.05
2022-09-11T09:13:26.298Z,5.68
2022-09-11T09:16:14.697Z,5.72
2022-09-11T09:18:51.244Z,5.93
2022-09-11T09:21:30.930Z,6.40
2022-09-11T09:24:02.119Z,5.88
2022-09-11T09:26:37.822Z,5.78
2022-09-11T09:29:09.426Z,5.97
2022-09-11T09:31:38.970Z,6.43
2022-09-11T09:34:20.821Z,6.00
2022-09-11T09:37:07.820Z,5.90
2022-09-11T09:39:36.644Z,5.53
2022-09-11T09:42:30.918Z,6.05
2022-09-11T09:45:01.320Z,5.60
2022-09-11T09:47:29.838Z,5.70
2022-09-11T09:49:58.294Z,5.13
2022-09-11T09:52:35.964Z,5.85
2022-09-11T09:55:05.720Z,5.00
2022-09-11T09:57:34.591Z,4.95
2022-09-11T10:00:10.488Z,4.72
2022-09-11T10:02:45.408Z,4.40
2022-09-11T10:05:28.680Z,4.50
2022-09-11T10:07:58.374Z,3.60
2022-09-11T10:10:34.191Z,3.35
2022-09-11T10:13:18.608Z,3.80
2022-09-11T10:15:48.443Z,3.22
2022-09-11T10:18:30.733Z,4.10
2022-09-11T10:21:12.460Z,3.85
2022-09-11T10:23:52.627Z,4.25
2022-09-11T10:26:24.705Z,4.38
2022-09-11T10:28:53.378Z,4.32
2022-09-11T10:31:22.359Z,4.25
2022-09-11T10:33:56.479Z,4.22
2022-09-11T10:36:25.966Z,4.10
2022-09-11T10:38:53.153Z,3.88
2022-09-11T10:41:24.926Z,3.72
2022-09-11T10:44:10.869Z,3.72
2022-09-11T10:46:39.090Z,3.47
2022-09-11T10:49:05.812Z,3.38
2022-09-11T10:51:34.470Z,3.75
2022-09-11T10:54:16.251Z,2.97
2022-09-11T10:57:13.163Z,3.40
2022-09-11T10:59:59.512Z,2.90
2022-09-11T11:02:31.746Z,2.50
2022-09-11T11:05:03.684Z,2.30
2022-09-11T11:07:53.120Z,2.70
2022-09-11T11:10:40.816Z,2.77
2022-09-11T11:13:22.672Z,2.53
2022-09-11T11:16:04.893Z,3.67
2022-09-11T11:18:58.556Z,3.00
2022-09-11T11:21:54.700Z,2.45
2022-09-11T11:24:37.400Z,2.30
2022-09-11T11:27:22.549Z,2.50
2022-09-11T11:30:08.082Z,2.38
2022-09-11T11:32:45.078Z,2.15
2022-09-11T11:35:48.791Z,2.70
2022-09-11T11:38:40.604Z,2.20
2022-09-11T11:41:27.456Z,2.70
2022-09-11T11:43:55.693Z,2.20
2022-09-11T11:46:30.354Z,2.05
2022-09-11T11:49:02.320Z,2.13
2022-09-11T11:51:34.480Z,2.20
2022-09-11T11:54:12.316Z,2.33
2022-09-11T11:56:43.478Z,2.40
2022-09-11T11:59:17.210Z,2.17
2022-09-11T12:01:54.398Z,1.80
2022-09-11T12:04:45.078Z,1.65
2022-09-11T12:07:21.582Z,1.58
2022-09-11T12:09:49.482Z,2.10
2022-09-11T12:12:17.164Z,2.20
2022-09-11T12:14:52.218Z,1.98
2022-09-11T12:17:25.653Z,1.73
2022-09-11T12:20:10.816Z,1.70
2022-09-11T12:22:42.156Z,1.50
2022-09-11T12:25:23.742Z,1.77
2022-09-11T12:27:53.147Z,1.90
2022-09-11T12:30:23.067Z,1.80
2022-09-11T12:32:51.019Z,1.83
2022-09-11T12:35:41.536Z,2.08
2022-09-11T12:38:08.950Z,1.77
2022-09-11T12:40:58.418Z,1.67
2022-09-11T12:43:37.789Z,1.77
2022-09-11T12:46:30.804Z,1.70
2022-09-11T12:49:22.964Z,1.83
2022-09-11T12:51:55.835Z,2.08
2022-09-11T12:54:29.455Z,1.45
2022-09-11T12:57:28.140Z,1.50
2022-09-11T13:00:00.695Z,2.05
2022-09-11T13:02:43.013Z,1.63
2022-09-11T13:05:28.245Z,1.52
2022-09-11T13:07:58.072Z,1.90
2022-09-11T13:10:37.469Z,1.95
2022-09-11T13:13:40.619Z,1.90
2022-09-11T13:16:26.028Z,2.00
2022-09-11T13:19:12.995Z,1.67
2022-09-11T13:21:49.555Z,1.80
2022-09-11T13:24:34.840Z,1.67
2022-09-11T13:27:08.418Z,1.83
2022-09-11T13:29:37.647Z,1.80
2022-09-11T13:32:13.821Z,2.00
2022-09-11T13:34:47.965Z,2.20
2022-09-11T13:37:53.136Z,2.15
2022-09-11T13:40:25.487Z,3.17
2022-09-11T13:42:54.920Z,1.88
2022-09-11T13:45:23.863Z,1.70
2022-09-11T13:47:50.555Z,1.60
2022-09-11T13:50:17.798Z,1.50
2022-09-11T13:52:45.601Z,1.67
2022-09-11T13:55:20.747Z,1.70
2022-09-11T13:58:23.575Z,1.40
2022-09-11T14:00:51.715Z,1.50
2022-09-11T14:03:21.954Z,1.38
2022-09-11T14:06:00.252Z,1.50
2022-09-11T14:08:36.077Z,1.70
2022-09-11T14:11:11.704Z,1.40
2022-09-11T14:13:48.107Z,1.55
2022-09-11T14:16:14.591Z,1.40
2022-09-11T14:18:50.024Z,1.45
2022-09-11T14:21:26.505Z,1.42
2022-09-11T14:23:57.540Z,1.55
2022-09-11T14:26:28.517Z,1.38
2022-09-11T14:29:01.330Z,1.35
2022-09-11T14:31:35.589Z,1.38
2022-09-11T14:34:24.102Z,1.30
2022-09-11T14:36:53.515Z,1.40
2022-09-11T14:39:38.732Z,1.20
2022-09-11T14:42:12.987Z,1.30
2022-09-11T14:44:41.198Z,1.65
2022-09-11T14:47:18.298Z,1.60
2022-09-11T14:49:47.474Z,1.50
2022-09-11T14:52:16.720Z,1.50
2022-09-11T14:54:44.017Z,1.50
2022-09-11T14:57:23.584Z,1.40
2022-09-11T14:59:51.240Z,1.50
2022-09-11T15:02:37.441Z,1.45
2022-09-11T15:05:07.030Z,1.52
2022-09-11T15:07:36.514Z,1.70
2022-09-11T15:10:03.736Z,1.55
2022-09-11T15:12:32.572Z,1.73
2022-09-11T15:15:00.791Z,1.75
2022-09-11T15:17:31.134Z,1.67
2022-09-11T15:20:00.596Z,1.63
2022-09-11T15:22:27.701Z,1.58
2022-09-11T15:24:56.493Z,1.92
2022-09-11T15:27:25.576Z,1.83
2022-09-11T15:29:53.258Z,1.80
2022-09-11T15:32:23.550Z,1.83
2022-09-11T15:34:52.082Z,1.73
2022-09-11T15:37:18.827Z,1.50
2022-09-11T15:39:47.717Z,2.03
2022-09-11T15:42:15.622Z,1.40
2022-09-11T15:44:43.557Z,2.08
2022-09-11T15:47:11.935Z,1.67
2022-09-11T15:49:44.399Z,1.50
2022-09-11T15:52:11.530Z,1.60
2022-09-11T15:54:39.547Z,1.65
2022-09-11T15:57:07.486Z,1.55
2022-09-11T15:59:36.130Z,1.80
2022-09-11T16:02:04.743Z,1.70
2022-09-11T16:04:32.380Z,1.35
2022-09-11T16:07:00.266Z,1.52
2022-09-11T16:09:29.880Z,1.30
2022-09-11T16:11:59.925Z,1.60
2022-09-11T16:14:33.670Z,1.60
2022-09-11T16:17:05.580Z,1.25
2022-09-11T16:19:33.959Z,1.50
2022-09-11T16:22:02.642Z,1.27
2022-09-11T16:24:37.088Z,1.58
2022-09-11T16:27:07.058Z,1.40
2022-09-11T16:30:09.094Z,1.92
2022-09-11T16:32:29.650Z,1.30
2022-09-11T16:35:00.017Z,1.50
2022-09-11T16:37:28.091Z,1.60
2022-09-11T16:39:54.738Z,1.50
2022-09-11T16:42:22.001Z,1.45
2022-09-11T16:44:49.682Z,1.48
2022-09-11T16:47:16.849Z,1.40
2022-09-11T16:50:05.786Z,1.45
2022-09-11T16:52:30.053Z,1.40
2022-09-11T16:54:56.711Z,1.48
2022-09-11T16:57:23.428Z,1.52
2022-09-11T16:59:50.754Z,1.80
2022-09-11T17:02:17.430Z,1.48
2022-09-11T17:04:44.115Z,1.52
2022-09-11T17:07:10.730Z,1.80
2022-09-11T17:09:37.719Z,1.45
2022-09-11T17:12:04.504Z,1.55
2022-09-11T17:14:31.072Z,1.60
2022-09-11T17:16:57.779Z,1.60
2022-09-11T17:19:24.419Z,1.50
2022-09-11T17:21:51.333Z,1.42
2022-09-11T17:24:21.634Z,1.70
2022-09-11T17:26:51.799Z,1.75
2022-09-11T17:29:21.647Z,2.27
2022-09-11T17:31:48.258Z,2.00
2022-09-11T17:34:14.884Z,1.77
2022-09-11T17:36:41.489Z,1.65
2022-09-11T17:39:09.323Z,2.05
2022-09-11T17:41:36.016Z,1.90
2022-09-11T17:44:03.167Z,1.73
2022-09-11T17:46:29.998Z,2.00
2022-09-11T17:48:56.804Z,1.92
2022-09-11T17:51:26.516Z,2.00
2022-09-11T17:53:57.975Z,2.17
2022-09-11T17:56:27.202Z,2.25
2022-09-11T17:58:56.183Z,1.95
2022-09-11T18:01:25.023Z,2.10
2022-09-11T18:03:57.019Z,2.08
2022-09-11T18:06:28.321Z,2.20
2022-09-11T18:08:57.708Z,2.38
2022-09-11T18:11:25.004Z,2.25
2022-09-11T18:13:51.927Z,2.20
2022-09-11T18:16:19.125Z,2.30
2022-09-11T18:18:45.834Z,2.05
2022-09-11T18:21:14.426Z,2.30
2022-09-11T18:23:44.555Z,2.40
2022-09-11T18:29:00.767Z,2.33
2022-09-11T18:31:30.128Z,2.28
2022-09-11T18:34:00.042Z,2.45
2022-09-11T18:36:28.678Z,2.28
2022-09-11T18:38:59.998Z,2.45
2022-09-11T18:41:28.045Z,2.70
2022-09-11T18:43:56.006Z,2.42
2022-09-11T18:46:22.811Z,2.40
2022-09-11T18:48:52.689Z,2.25
2022-09-11T18:51:20.247Z,2.65
2022-09-11T18:53:47.943Z,2.60
2022-09-11T18:56:15.500Z,2.60
2022-09-11T18:58:42.414Z,2.70
2022-09-11T19:01:11.556Z,2.60
2022-09-11T19:03:42.135Z,2.72
2022-09-11T19:06:11.730Z,3.53
2022-09-11T19:08:40.394Z,3.23
2022-09-11T19:11:16.403Z,2.90
2022-09-11T19:13:44.506Z,3.08
2022-09-11T19:16:11.991Z,3.35
2022-09-11T19:18:39.134Z,3.25
2022-09-11T19:21:10.321Z,5.13
2022-09-11T19:23:39.745Z,5.47
2022-09-11T19:26:17.917Z,4.73
2022-09-11T19:28:45.630Z,5.57
2022-09-11T19:31:14.370Z,6.10
2022-09-11T19:33:42.353Z,6.78
2022-09-11T19:36:12.363Z,6.15
2022-09-11T19:38:42.820Z,5.88
2022-09-11T19:41:12.938Z,4.30
2022-09-11T19:43:40.848Z,3.67
2022-09-11T19:46:15.892Z,3.80
2022-09-11T19:48:44.172Z,4.03
2022-09-11T19:51:22.941Z,3.80
2022-09-11T19:53:51.315Z,3.80
2022-09-11T19:56:18.541Z,3.80
2022-09-11T19:58:45.491Z,4.40
2022-09-11T20:01:14.283Z,4.20
2022-09-11T20:03:43.136Z,4.35
2022-09-11T20:06:11.724Z,3.38
2022-09-11T20:08:40.377Z,3.47
2022-09-11T20:11:07.483Z,3.55
2022-09-11T20:13:35.035Z,3.92
2022-09-11T20:16:06.205Z,4.30
2022-09-11T20:18:33.341Z,4.85
2022-09-11T20:21:08.355Z,4.13
2022-09-11T20:23:35.589Z,4.00
2022-09-11T20:26:13.693Z,4.00
2022-09-11T20:28:43.881Z,4.35
2022-09-11T20:31:18.836Z,4.25
2022-09-11T20:33:46.086Z,4.47
2022-09-11T20:36:13.805Z,4.70
2022-09-11T20:38:40.742Z,4.47
2022-09-11T20:41:12.488Z,5.68
2022-09-11T20:43:39.794Z,7.18
2022-09-11T20:46:06.691Z,8.48
2022-09-11T20:48:34.010Z,6.78
2022-09-11T20:51:11.777Z,5.72
2022-09-11T20:53:41.752Z,5.78
2022-09-11T20:56:09.781Z,6.25
2022-09-11T20:58:37.302Z,5.65
2022-09-11T21:01:06.336Z,4.35
2022-09-11T21:03:33.451Z,4.60
2022-09-11T21:06:08.111Z,4.43
2022-09-11T21:08:34.859Z,4.38
2022-09-11T21:11:05.727Z,4.80
2022-09-11T21:13:40.231Z,5.15
2022-09-11T21:16:12.425Z,4.65
2022-09-11T21:18:39.880Z,4.75
2022-09-11T21:21:06.980Z,5.63
2022-09-11T21:23:34.030Z,5.35
2022-09-11T21:26:00.803Z,5.85
2022-09-11T21:28:27.421Z,7.35
2022-09-11T21:30:54.028Z,7.07
2022-09-11T21:33:20.584Z,7.43
2022-09-11T21:35:54.082Z,5.75
2022-09-11T21:38:29.300Z,5.40
2022-09-11T21:40:57.487Z,5.80
2022-09-11T21:43:24.450Z,6.45
2022-09-11T21:45:51.122Z,7.20
2022-09-11T21:48:17.664Z,7.53
2022-09-11T21:50:44.431Z,8.23
2022-09-11T21:53:11.944Z,6.95
2022-09-11T21:55:40.809Z,6.88
2022-09-11T21:58:07.657Z,6.68
2022-09-11T22:00:40.699Z,7.32
2022-09-11T22:03:10.131Z,7.18
2022-09-11T22:05:45.639Z,7.00
2022-09-11T22:08:13.967Z,6.80
2022-09-11T22:10:45.889Z,6.05
2022-09-11T22:13:12.895Z,5.82
2022-09-11T22:15:41.126Z,6.43
2022-09-11T22:18:07.908Z,6.35
2022-09-11T22:20:36.701Z,5.90
2022-09-11T22:23:03.432Z,4.95
2022-09-11T22:25:30.288Z,5.57
2022-09-11T22:27:57.095Z,5.85
2022-09-11T22:30:23.847Z,5.72
2022-09-11T22:32:51.007Z,5.18
2022-09-11T22:35:17.586Z,5.68
2022-09-11T22:37:44.212Z,5.80
2022-09-11T22:40:11.050Z,5.43
2022-09-11T22:42:37.702Z,6.10
2022-09-11T22:45:04.874Z,5.47
2022-09-11T22:47:32.728Z,5.68
2022-09-11T22:49:59.602Z,5.65
2022-09-11T22:52:26.152Z,5.97
2022-09-11T22:54:52.773Z,5.07
2022-09-11T22:57:19.469Z,6.00
2022-09-11T22:59:47.242Z,6.35
2022-09-11T23:02:14.266Z,7.78
2022-09-11T23:05:01.211Z,7.88
2022-09-11T23:07:27.909Z,6.93
2022-09-11T23:09:54.784Z,6.78
2022-09-11T23:12:21.468Z,5.97
2022-09-11T23:14:48.251Z,8.07
2022-09-11T23:17:15.002Z,8.80
2022-09-11T23:19:41.584Z,8.93
2022-09-11T23:22:08.121Z,8.75
2022-09-11T23:24:34.692Z,10.00
2022-09-11T23:27:01.313Z,9.35
2022-09-11T23:29:28.064Z,9.38
2022-09-11T23:31:56.322Z,9.80
2022-09-11T23:34:22.976Z,9.10
2022-09-11T23:36:49.629Z,9.57
2022-09-11T23:39:16.610Z,8.75
2022-09-11T23:41:43.244Z,6.97
2022-09-11T23:44:10.283Z,8.63
2022-09-11T23:46:36.836Z,7.15
2022-09-11T23:49:03.711Z,6.07
2022-09-11T23:51:30.514Z,6.13
2022-09-11T23:53:57.089Z,5.88
2022-09-11T23:56:23.743Z,8.35
2022-09-11T23:58:51.315Z,9.25
